createdAt,value
2022-12-31T00:01:45.747Z,2.28
2022-12-31T00:04:12.100Z,1.98
2022-12-31T00:06:38.495Z,2.47
2022-12-31T00:09:06.887Z,1.92
2022-12-31T00:11:34.809Z,2.33
2022-12-31T00:14:01.368Z,4.28
2022-12-31T00:16:33.982Z,1.70
2022-12-31T00:19:01.002Z,1.77
2022-12-31T00:21:29.777Z,3.38
2022-12-31T00:23:57.041Z,2.13
2022-12-31T00:26:26.270Z,3.35
2022-12-31T00:28:54.480Z,2.58
2022-12-31T00:31:39.791Z,2.58
2022-12-31T00:34:07.037Z,2.90
2022-12-31T00:36:37.543Z,3.17
2022-12-31T00:39:06.019Z,3.30
2022-12-31T00:41:32.954Z,4.30
2022-12-31T00:43:59.773Z,4.43
2022-12-31T00:46:26.968Z,4.03
2022-12-31T00:48:53.905Z,5.85
2022-12-31T00:51:23.237Z,6.18
2022-12-31T00:53:50.045Z,6.20
2022-12-31T00:56:19.200Z,6.07
2022-12-31T00:58:46.229Z,5.97
2022-12-31T01:01:21.074Z,6.90
2022-12-31T01:03:50.156Z,6.57
2022-12-31T01:06:16.669Z,7.03
2022-12-31T01:08:43.198Z,7.18
2022-12-31T01:11:22.469Z,6.97
2022-12-31T01:13:50.879Z,5.97
2022-12-31T01:16:19.078Z,7.10
2022-12-31T01:18:45.607Z,6.50
2022-12-31T01:21:13.641Z,5.30
2022-12-31T01:23:40.519Z,5.57
2022-12-31T01:26:09.276Z,5.22
2022-12-31T01:28:36.151Z,5.07
2022-12-31T01:31:07.248Z,5.97
2022-12-31T01:33:34.251Z,7.13
2022-12-31T01:36:08.539Z,7.15
2022-12-31T01:38:35.660Z,6.93
2022-12-31T01:41:03.349Z,6.72
2022-12-31T01:43:51.527Z,7.28
2022-12-31T01:46:25.537Z,7.00
2022-12-31T01:48:56.584Z,6.72
2022-12-31T01:51:25.522Z,6.97
2022-12-31T01:53:52.075Z,19.63
2022-12-31T01:56:22.094Z,7.38
2022-12-31T01:58:51.596Z,7.47
2022-12-31T02:01:24.618Z,7.43
2022-12-31T02:06:25.629Z,6.95
2022-12-31T02:08:52.009Z,8.18
2022-12-31T02:11:20.876Z,10.50
2022-12-31T02:13:47.288Z,6.28
2022-12-31T04:50:07.175Z,0.95
2022-12-31T04:52:40.310Z,0.65
2022-12-31T04:55:09.008Z,0.70
2022-12-31T04:57:35.537Z,0.60
2022-12-31T05:00:02.091Z,0.75
2022-12-31T05:02:29.883Z,0.70
2022-12-31T05:04:56.405Z,0.60
2022-12-31T05:07:22.807Z,0.77
2022-12-31T05:09:49.178Z,0.60
2022-12-31T05:12:15.559Z,0.60
2022-12-31T05:14:41.972Z,0.77
2022-12-31T05:17:08.336Z,0.60
2022-12-31T05:19:34.715Z,0.70
2022-12-31T05:22:19.779Z,0.75
2022-12-31T05:24:46.134Z,0.65
2022-12-31T05:27:12.513Z,0.95
2022-12-31T05:29:38.878Z,0.82
2022-12-31T05:32:05.325Z,0.80
2022-12-31T05:34:31.721Z,0.50
2022-12-31T05:36:58.077Z,0.40
2022-12-31T05:39:24.453Z,0.60
2022-12-31T05:41:50.809Z,0.40
2022-12-31T05:44:17.161Z,0.75
2022-12-31T05:46:43.577Z,0.40
2022-12-31T05:49:10.010Z,0.30
2022-12-31T05:51:36.404Z,0.50
2022-12-31T05:54:02.791Z,0.30
2022-12-31T05:56:29.261Z,0.57
2022-12-31T05:58:55.915Z,1.35
2022-12-31T06:01:22.733Z,0.40
2022-12-31T06:03:49.275Z,0.30
2022-12-31T06:06:15.693Z,0.38
2022-12-31T06:08:42.196Z,0.20
2022-12-31T06:11:08.740Z,0.40
2022-12-31T06:13:35.255Z,0.22
2022-12-31T06:16:06.452Z,0.50
2022-12-31T06:18:32.857Z,0.30
2022-12-31T06:20:59.233Z,0.38
2022-12-31T06:23:25.647Z,0.50
2022-12-31T06:25:52.094Z,0.25
2022-12-31T06:28:20.561Z,0.32
2022-12-31T06:30:47.387Z,0.40
2022-12-31T06:33:14.010Z,0.40
2022-12-31T06:35:40.419Z,1.88
2022-12-31T06:38:06.819Z,0.68
2022-12-31T06:40:33.183Z,0.90
2022-12-31T06:43:00.341Z,0.77
2022-12-31T06:45:27.030Z,0.65
2022-12-31T06:47:53.427Z,0.70
2022-12-31T06:50:19.817Z,1.98
2022-12-31T06:52:46.260Z,0.90
2022-12-31T06:55:13.723Z,0.85
2022-12-31T06:57:40.400Z,1.00
2022-12-31T07:00:07.374Z,1.23
2022-12-31T07:02:55.488Z,1.15
2022-12-31T07:05:55.755Z,1.42
2022-12-31T07:08:46.806Z,1.80
2022-12-31T07:11:23.561Z,1.63
2022-12-31T07:13:59.265Z,1.55
2022-12-31T07:16:50.299Z,1.52
2022-12-31T07:19:36.592Z,1.40
2022-12-31T07:22:03.789Z,0.90
2022-12-31T07:24:30.401Z,1.30
2022-12-31T07:27:12.586Z,1.35
2022-12-31T07:29:57.662Z,1.02
2022-12-31T07:32:45.264Z,1.38
2022-12-31T07:35:44.100Z,1.20
2022-12-31T07:38:24.834Z,1.60
2022-12-31T07:41:28.178Z,1.20
2022-12-31T07:44:04.314Z,0.93
2022-12-31T07:46:49.539Z,1.52
2022-12-31T07:49:16.190Z,0.70
2022-12-31T07:51:43.366Z,0.98
2022-12-31T07:54:13.856Z,1.02
2022-12-31T07:56:41.597Z,0.98
2022-12-31T07:59:17.416Z,1.00
2022-12-31T08:01:51.949Z,0.68
2022-12-31T08:04:32.523Z,1.42
2022-12-31T08:07:31.841Z,0.70
2022-12-31T08:10:39.245Z,1.02
2022-12-31T08:13:10.705Z,0.90
2022-12-31T08:15:38.512Z,1.08
2022-12-31T08:18:05.731Z,1.73
2022-12-31T08:20:37.268Z,3.08
2022-12-31T08:23:06.581Z,1.23
2022-12-31T08:26:30.477Z,1.83
2022-12-31T08:29:07.921Z,0.98
2022-12-31T08:32:04.433Z,2.05
2022-12-31T08:35:03.086Z,3.05
2022-12-31T08:37:41.615Z,2.15
2022-12-31T08:40:20.098Z,2.53
2022-12-31T08:43:01.502Z,1.55
2022-12-31T08:45:47.571Z,1.63
2022-12-31T08:48:26.609Z,1.77
2022-12-31T08:50:54.182Z,3.65
2022-12-31T08:53:20.888Z,2.20
2022-12-31T08:55:52.681Z,2.60
2022-12-31T08:59:04.539Z,5.03
2022-12-31T09:01:44.077Z,4.03
2022-12-31T09:04:33.769Z,2.13
2022-12-31T09:07:03.090Z,5.05
2022-12-31T09:09:44.163Z,4.82
2022-12-31T09:12:22.936Z,5.28
2022-12-31T09:15:21.022Z,4.45
2022-12-31T09:17:49.661Z,3.95
2022-12-31T09:20:42.991Z,2.42
2022-12-31T09:23:12.200Z,4.97
2022-12-31T09:26:09.436Z,3.45
2022-12-31T09:28:43.081Z,3.75
2022-12-31T09:31:14.652Z,3.08
2022-12-31T09:33:48.500Z,4.13
2022-12-31T09:36:23.988Z,4.15
2022-12-31T09:39:00.699Z,2.90
2022-12-31T09:41:37.734Z,4.97
2022-12-31T09:44:43.268Z,4.85
2022-12-31T09:47:18.500Z,1.83
2022-12-31T09:50:06.240Z,1.67
2022-12-31T09:53:13.433Z,0.88
2022-12-31T09:55:55.851Z,0.50
2022-12-31T09:58:29.823Z,1.03
2022-12-31T10:01:04.110Z,1.63
2022-12-31T10:03:42.854Z,1.58
2022-12-31T10:06:32.121Z,1.65
2022-12-31T10:09:10.393Z,2.28
2022-12-31T10:11:55.700Z,1.30
2022-12-31T10:14:46.980Z,1.05
2022-12-31T10:17:32.630Z,0.28
2022-12-31T10:20:28.714Z,0.50
2022-12-31T10:23:28.976Z,0.47
2022-12-31T10:26:10.575Z,0.52
2022-12-31T10:29:09.777Z,0.40
2022-12-31T10:31:57.950Z,1.02
2022-12-31T10:34:47.254Z,0.98
2022-12-31T10:37:29.603Z,0.40
2022-12-31T10:39:55.920Z,0.97
2022-12-31T10:42:38.400Z,1.40
2022-12-31T10:45:42.492Z,1.90
2022-12-31T10:48:52.635Z,1.42
2022-12-31T10:51:25.194Z,0.38
2022-12-31T10:54:00.707Z,0.88
2022-12-31T10:56:57.886Z,0.50
2022-12-31T11:00:01.700Z,0.60
2022-12-31T11:05:26.028Z,1.90
2022-12-31T11:08:23.952Z,2.60
2022-12-31T11:11:17.142Z,3.00
2022-12-31T11:13:49.728Z,2.20
2022-12-31T11:16:51.798Z,1.35
2022-12-31T11:19:38.680Z,1.85
2022-12-31T11:22:36.696Z,1.17
2022-12-31T11:25:12.711Z,2.92
2022-12-31T11:27:59.574Z,3.22
2022-12-31T11:30:53.961Z,7.00
2022-12-31T11:33:55.196Z,2.47
2022-12-31T11:36:42.204Z,2.80
2022-12-31T11:39:39.684Z,3.38
2022-12-31T11:42:34.523Z,2.28
2022-12-31T11:45:01.010Z,4.32
2022-12-31T11:48:12.184Z,3.50
2022-12-31T11:50:49.323Z,3.42
2022-12-31T11:53:43.857Z,2.80
2022-12-31T11:56:24.615Z,2.35
2022-12-31T11:58:56.027Z,2.30
2022-12-31T12:01:30.406Z,5.10
2022-12-31T12:04:18.579Z,4.55
2022-12-31T12:06:46.120Z,4.20
2022-12-31T12:09:26.592Z,8.15
2022-12-31T12:12:02.807Z,3.58
2022-12-31T12:14:43.914Z,3.65
2022-12-31T12:17:18.041Z,3.53
2022-12-31T12:19:47.696Z,4.03
2022-12-31T12:22:21.601Z,7.50
2022-12-31T12:25:03.042Z,4.15
2022-12-31T12:27:31.529Z,3.53
2022-12-31T12:29:58.089Z,4.32
2022-12-31T12:32:26.592Z,2.80
2022-12-31T12:34:53.983Z,3.33
2022-12-31T12:37:35.329Z,7.05
2022-12-31T12:40:29.888Z,3.83
2022-12-31T12:42:59.849Z,6.22
2022-12-31T12:45:30.073Z,5.78
2022-12-31T12:48:02.338Z,4.65
2022-12-31T12:50:42.126Z,5.00
2022-12-31T12:53:26.446Z,5.63
2022-12-31T12:56:11.013Z,6.97
2022-12-31T12:58:40.517Z,7.10
2022-12-31T13:01:25.145Z,5.13
2022-12-31T13:04:34.115Z,6.07
2022-12-31T13:07:19.275Z,5.03
2022-12-31T13:09:59.192Z,7.93
2022-12-31T13:12:56.711Z,4.70
2022-12-31T13:15:30.417Z,5.97
2022-12-31T13:18:29.344Z,3.35
2022-12-31T13:21:18.269Z,4.22
2022-12-31T13:23:57.582Z,5.40
2022-12-31T13:26:44.862Z,5.25
2022-12-31T13:29:20.895Z,6.00
2022-12-31T13:31:50.140Z,4.70
2022-12-31T13:34:22.227Z,4.25
2022-12-31T13:36:50.891Z,5.72
2022-12-31T13:39:41.842Z,6.45
2022-12-31T13:42:44.178Z,7.57
2022-12-31T13:45:17.042Z,7.78
2022-12-31T13:47:58.526Z,4.22
2022-12-31T13:50:34.514Z,10.85
2022-12-31T13:53:16.144Z,5.10
2022-12-31T13:55:56.625Z,4.05
2022-12-31T13:58:45.651Z,4.20
2022-12-31T14:01:22.429Z,4.72
2022-12-31T14:04:26.569Z,3.22
2022-12-31T14:07:14.727Z,6.95
2022-12-31T14:09:42.475Z,5.75
2022-12-31T14:12:35.208Z,5.70
2022-12-31T14:15:26.316Z,4.93
2022-12-31T14:18:01.642Z,6.25
2022-12-31T14:20:48.085Z,4.18
2022-12-31T14:23:44.717Z,2.95
2022-12-31T14:26:27.586Z,3.60
2022-12-31T14:29:14.000Z,10.07
2022-12-31T14:31:49.449Z,4.25
2022-12-31T14:34:18.855Z,4.18
2022-12-31T14:37:03.991Z,4.13
2022-12-31T14:39:36.575Z,4.40
2022-12-31T14:42:09.958Z,2.85
2022-12-31T14:44:50.857Z,6.15
2022-12-31T14:47:20.157Z,3.60
2022-12-31T14:50:11.405Z,6.03
2022-12-31T14:52:47.350Z,8.20
2022-12-31T14:55:15.088Z,2.78
2022-12-31T14:58:25.375Z,4.88
2022-12-31T15:00:35.137Z,3.63
2022-12-31T15:03:30.683Z,6.68
2022-12-31T15:06:34.897Z,6.82
2022-12-31T15:09:19.107Z,3.42
2022-12-31T15:11:54.836Z,5.55
2022-12-31T15:14:29.810Z,5.50
2022-12-31T15:17:29.226Z,4.90
2022-12-31T15:20:17.571Z,4.57
2022-12-31T15:22:46.318Z,4.15
2022-12-31T15:25:40.488Z,6.38
2022-12-31T15:28:32.269Z,4.97
2022-12-31T15:31:05.095Z,8.32
2022-12-31T15:33:53.351Z,7.50
2022-12-31T15:36:22.846Z,7.47
2022-12-31T15:38:50.342Z,12.65
2022-12-31T15:41:19.684Z,5.18
2022-12-31T15:43:52.032Z,3.15
2022-12-31T15:46:25.494Z,4.43
2022-12-31T15:49:03.902Z,6.85
2022-12-31T15:51:37.643Z,5.28
2022-12-31T15:54:05.515Z,6.28
2022-12-31T15:56:38.151Z,5.88
2022-12-31T15:59:11.780Z,8.85
2022-12-31T16:01:41.770Z,6.30
2022-12-31T16:04:24.228Z,5.20
2022-12-31T16:06:51.594Z,4.07
2022-12-31T16:09:23.213Z,6.55
2022-12-31T16:11:50.805Z,6.25
2022-12-31T16:14:35.844Z,10.52
2022-12-31T16:17:03.023Z,7.78
2022-12-31T16:19:35.375Z,7.20
2022-12-31T16:22:14.435Z,9.60
2022-12-31T16:25:02.894Z,10.13
2022-12-31T16:27:29.995Z,8.38
2022-12-31T16:30:02.097Z,8.77
2022-12-31T16:32:35.583Z,9.40
2022-12-31T16:35:02.152Z,10.50
2022-12-31T16:37:28.695Z,11.55
2022-12-31T16:40:16.604Z,6.90
2022-12-31T16:42:46.655Z,9.45
2022-12-31T16:45:30.967Z,7.32
2022-12-31T16:48:14.711Z,7.53
2022-12-31T16:50:49.386Z,7.07
2022-12-31T16:53:20.056Z,6.00
2022-12-31T16:56:01.393Z,6.13
2022-12-31T16:58:33.216Z,8.57
2022-12-31T17:01:13.664Z,7.55
2022-12-31T17:03:45.391Z,6.60
2022-12-31T17:06:16.166Z,5.45
2022-12-31T17:08:55.732Z,5.50
2022-12-31T17:11:31.268Z,6.45
2022-12-31T17:14:07.306Z,5.90
2022-12-31T17:16:35.746Z,6.82
2022-12-31T17:19:03.957Z,7.28
2022-12-31T17:21:32.259Z,9.90
2022-12-31T17:24:05.418Z,6.28
2022-12-31T17:26:35.069Z,9.30
2022-12-31T17:29:02.953Z,5.57
2022-12-31T17:31:33.727Z,6.88
2022-12-31T17:34:06.124Z,8.48
2022-12-31T17:36:32.566Z,5.28
2022-12-31T17:39:17.765Z,4.40
2022-12-31T17:41:45.895Z,4.80
2022-12-31T17:44:19.808Z,5.18
2022-12-31T17:46:46.738Z,7.13
2022-12-31T17:49:16.506Z,6.80
2022-12-31T17:51:47.479Z,7.35
2022-12-31T17:54:15.575Z,5.95
2022-12-31T17:56:42.503Z,8.57
2022-12-31T17:59:33.199Z,7.50
2022-12-31T18:02:01.868Z,3.25
2022-12-31T18:04:28.373Z,5.22
2022-12-31T18:06:54.672Z,5.35
2022-12-31T18:09:21.053Z,4.60
2022-12-31T18:11:47.475Z,5.85
2022-12-31T18:14:15.236Z,5.53
2022-12-31T18:16:42.230Z,6.60
2022-12-31T18:19:37.827Z,4.55
2022-12-31T18:22:02.227Z,5.60
2022-12-31T18:24:28.528Z,6.50
2022-12-31T18:26:55.165Z,5.13
2022-12-31T18:29:22.256Z,6.97
2022-12-31T18:31:49.687Z,5.63
2022-12-31T18:34:17.784Z,4.03
2022-12-31T18:36:44.734Z,5.32
2022-12-31T18:39:11.334Z,6.68
2022-12-31T18:41:50.837Z,6.68
2022-12-31T18:44:17.529Z,4.82
2022-12-31T18:46:43.890Z,8.23
2022-12-31T18:49:10.244Z,4.30
2022-12-31T18:51:36.735Z,5.65
2022-12-31T18:54:04.641Z,5.47
2022-12-31T18:56:31.368Z,7.85
2022-12-31T18:58:59.521Z,6.45
2022-12-31T19:01:38.044Z,6.88
2022-12-31T19:04:14.979Z,4.93
2022-12-31T19:06:42.455Z,6.45
2022-12-31T19:09:30.980Z,6.93
2022-12-31T19:11:56.096Z,5.72
2022-12-31T19:14:24.503Z,6.13
2022-12-31T19:16:52.266Z,7.30
2022-12-31T19:19:18.896Z,7.65
2022-12-31T19:21:45.654Z,4.40
2022-12-31T19:24:24.432Z,10.50
2022-12-31T19:26:50.793Z,9.10
2022-12-31T19:29:19.576Z,4.78
2022-12-31T19:31:46.173Z,5.18
2022-12-31T19:34:12.828Z,3.95
2022-12-31T19:36:44.059Z,6.28
2022-12-31T19:39:16.083Z,8.27
2022-12-31T19:41:43.699Z,10.13
2022-12-31T19:44:18.196Z,6.30
2022-12-31T19:46:45.300Z,6.47
2022-12-31T19:49:14.682Z,7.90
2022-12-31T19:51:41.637Z,10.13
2022-12-31T19:54:08.528Z,7.82
2022-12-31T19:56:35.030Z,10.48
2022-12-31T19:59:06.239Z,7.13
2022-12-31T20:01:32.667Z,8.23
2022-12-31T20:03:59.251Z,7.28
2022-12-31T20:06:25.580Z,10.45
2022-12-31T20:08:51.891Z,6.88
2022-12-31T20:11:21.011Z,5.03
2022-12-31T20:13:48.811Z,9.52
2022-12-31T20:16:17.403Z,6.43
2022-12-31T20:18:45.805Z,7.70
2022-12-31T20:21:18.862Z,6.97
2022-12-31T20:26:11.643Z,6.57
2022-12-31T20:28:38.556Z,7.47
2022-12-31T20:31:06.992Z,7.40
2022-12-31T20:33:33.896Z,17.63
2022-12-31T20:36:05.109Z,7.75
2022-12-31T20:38:31.519Z,9.18
2022-12-31T20:41:16.746Z,5.75
2022-12-31T20:43:43.953Z,6.97
2022-12-31T20:46:17.914Z,8.57
2022-12-31T20:48:45.441Z,13.02
2022-12-31T20:51:13.406Z,9.80
2022-12-31T20:53:40.320Z,10.48
2022-12-31T20:56:08.779Z,7.35
2022-12-31T20:58:35.957Z,9.80
2022-12-31T21:01:06.007Z,11.23
2022-12-31T21:06:19.018Z,9.13
2022-12-31T21:08:45.697Z,9.23
2022-12-31T21:11:31.675Z,9.07
2022-12-31T21:13:59.287Z,8.48
2022-12-31T21:16:27.023Z,8.93
2022-12-31T21:18:54.117Z,8.48
2022-12-31T21:21:20.608Z,13.00
2022-12-31T21:23:46.954Z,11.88
2022-12-31T21:26:13.441Z,8.48
2022-12-31T21:28:39.814Z,13.82
2022-12-31T21:31:08.106Z,5.90
2022-12-31T21:33:34.998Z,9.27
2022-12-31T21:36:04.667Z,8.70
2022-12-31T21:38:31.412Z,11.30
2022-12-31T21:41:05.642Z,5.13
2022-12-31T21:43:32.003Z,8.05
2022-12-31T21:46:06.858Z,9.88
2022-12-31T21:48:33.777Z,10.35
2022-12-31T21:51:13.033Z,10.65
2022-12-31T21:53:40.098Z,11.95
2022-12-31T21:56:11.229Z,8.48
2022-12-31T21:58:43.486Z,10.27
2022-12-31T22:01:41.483Z,9.90
2022-12-31T22:04:28.161Z,7.55
2022-12-31T22:06:54.389Z,6.82
2022-12-31T22:09:20.728Z,7.63
2022-12-31T22:11:47.600Z,14.35
2022-12-31T22:14:13.950Z,14.10
2022-12-31T22:16:40.298Z,10.27
2022-12-31T22:19:06.622Z,13.30
2022-12-31T22:21:32.995Z,8.05
2022-12-31T22:23:59.424Z,14.80
2022-12-31T22:26:28.701Z,11.27
2022-12-31T22:28:59.057Z,10.90
2022-12-31T22:31:29.688Z,10.93
2022-12-31T22:33:56.303Z,7.03
2022-12-31T22:36:23.534Z,9.45
2022-12-31T22:38:53.850Z,12.27
2022-12-31T22:41:22.103Z,8.65
2022-12-31T22:43:51.052Z,14.50
2022-12-31T22:46:20.923Z,11.25
2022-12-31T22:48:47.901Z,13.30
2022-12-31T22:51:15.695Z,7.68
2022-12-31T22:53:43.420Z,10.57
2022-12-31T22:56:13.436Z,10.18
2022-12-31T22:58:40.237Z,8.23
2022-12-31T23:01:08.976Z,9.90
2022-12-31T23:09:44.947Z,18.17
2022-12-31T23:12:11.544Z,17.70
2022-12-31T23:14:56.496Z,12.77
2022-12-31T23:17:44.696Z,15.73
2022-12-31T23:20:33.157Z,15.25
2022-12-31T23:23:08.906Z,12.52
2022-12-31T23:26:00.198Z,14.10
2022-12-31T23:28:26.673Z,14.25
2022-12-31T23:30:53.768Z,21.20
2022-12-31T23:33:23.473Z,14.48
2022-12-31T23:35:50.326Z,14.20
2022-12-31T23:38:18.259Z,17.85
2022-12-31T23:40:45.635Z,11.63
2022-12-31T23:43:21.601Z,14.13
2022-12-31T23:45:50.388Z,11.85
2022-12-31T23:48:16.946Z,11.02
2022-12-31T23:50:47.638Z,11.88
2022-12-31T23:53:17.448Z,11.45
2022-12-31T23:55:43.928Z,11.10
2022-12-31T23:58:10.470Z,9.38
